Callender, IA (50523)

11:43 AM CST on December 03, 2016 (GMT -0600)
3 miles ssw of knierim | | Change Station

Elev 1179 ft 42.42 °N, 94.48 °W | Updated 10 seconds ago

Scattered Clouds
Scattered Clouds
39.2 °F
Feels Like 31 °F
N
13.0
Wind Variable Wind from South

Today
High -- | Low -- °F
--% Chance of Precip.
Yesterday
High -- | Low -- °F
Precip. -- in
Pressure 30.28 in
Visibility 10.0 miles
Clouds Scattered Clouds 2600 ft
Windchill 31 °F
Dew Point 32 °F
Humidity 78%
Rainfall 0.00 in
Snow Depth Not available.
7:29 AM 4:44 PM
Waxing Crescent, 16% visible
METAR KFOD 031735Z 17008KT 10SM SCT026 04/M03 A3028 RMK AO1
Pressure 30.28 in
Visibility 10.0 miles
Clouds Scattered Clouds 2600 ft
Windchill 31 °F
Dew Point 32 °F
Humidity 78%
Rainfall 0.00 in
Snow Depth Not available.
7:29 AM 4:44 PM
Waxing Crescent, 16% visible
METAR KFOD 031735Z 17008KT 10SM SCT026 04/M03 A3028 RMK AO1

10-Day Weather Forecast

Almanac

Astronomy

Dec. 03, 2016 Rise Set
Actual Time
Civil Twilight
Nautical Twilight
Astronomical Twilight
Moon
Length of Visible Light
Length of Day
Tomorrow will be .
, % of the Moon is Illuminated

Today's Extremes

State Highs State Lows

Community

WunderPhotos

Upload Photos

1,955,455 photos uploaded!

WunderBlog® & News

Nearby

Air Quality

  Air Quality AQ Index Pollutant
Not available.

Snow Depth

Station Depth Elevation

Earthquake Activity

City Distance Mag. Time & Date
Minimum magnitude displayed is 2.5.

Coastal Water Temperatures

Place Temperature

Stations

Nearby Weather Stations

Station Location Temp. Windchill Dew Point Humidity Wind Precip. Elev Updated Type
                   

Watches & Warnings

There are currently no watches in effect.